Time;durP1;ratioP1;P1;durP2;ratioP2;P2;SDS_P1;SDS_P2;PMS_P1;PMS_P2;Temp;Humidity;BMP_temperature;BMP_pressure;BME280_temperature;BME280_humidity;BME280_pressure;Samples;Min_cycle;Max_cycle;Signal;HPM_P1;HPM_P2
2022/01/25 17:17:52;;;;;;;41.60;24.73;;;2.70;91.60;;;;;;5110079;27;20384;-48
2022/01/25 17:20:20;;;;;;;39.38;24.65;;;2.70;91.70;;;;;;5091304;28;20113;-49
2022/01/25 17:22:47;;;;;;;41.70;25.55;;;2.70;91.90;;;;;;5089848;28;20124;-49
2022/01/25 17:25:14;;;;;;;40.15;25.38;;;2.80;91.60;;;;;;5092692;28;20040;-47
2022/01/25 17:27:41;;;;;;;35.25;22.80;;;2.80;91.50;;;;;;5090124;28;20483;-50
2022/01/25 17:30:07;;;;;;;37.90;23.48;;;2.80;91.30;;;;;;5094754;28;20036;-50
2022/01/25 17:32:34;;;;;;;33.60;22.55;;;2.90;91.10;;;;;;5089205;28;20403;-48
2022/01/25 17:35:01;;;;;;;34.78;23.05;;;3.00;91.10;;;;;;5088097;28;20043;-48
2022/01/25 17:37:28;;;;;;;35.40;23.25;;;3.00;91.20;;;;;;5090160;28;20047;-47
2022/01/25 17:39:57;;;;;;;37.08;24.95;;;3.10;90.90;;;;;;5090566;28;20068;-48
2022/01/25 17:42:24;;;;;;;32.15;21.65;;;3.20;90.70;;;;;;5091796;28;20040;-53
2022/01/25 17:44:51;;;;;;;30.42;21.50;;;3.20;90.50;;;;;;5093347;28;20094;-50
2022/01/25 17:47:18;;;;;;;35.15;24.00;;;3.10;90.30;;;;;;5089675;28;20044;-46
2022/01/25 17:49:45;;;;;;;33.20;24.30;;;3.10;90.60;;;;;;5091720;28;20040;-48
2022/01/25 17:52:12;;;;;;;39.33;24.98;;;3.20;90.60;;;;;;5089807;28;20488;-50
2022/01/25 17:54:38;;;;;;;36.83;24.90;;;3.20;90.60;;;;;;5089678;28;20074;-49
2022/01/25 17:57:05;;;;;;;33.22;23.75;;;3.20;90.70;;;;;;5089652;28;20058;-47
2022/01/25 17:59:32;;;;;;;31.70;22.58;;;3.30;90.50;;;;;;5091795;28;20040;-48
2022/01/25 18:02:00;;;;;;;37.00;22.63;;;3.30;90.50;;;;;;5089371;28;20433;-49
2022/01/25 18:04:28;;;;;;;33.58;22.40;;;3.30;90.50;;;;;;5089634;28;20032;-46
2022/01/25 18:06:54;;;;;;;34.33;22.17;;;3.30;90.40;;;;;;5089382;28;20044;-47
2022/01/25 18:09:21;;;;;;;31.92;22.45;;;3.30;90.40;;;;;;5089389;28;20037;-51
2022/01/25 18:11:48;;;;;;;29.95;21.95;;;3.30;90.40;;;;;;5091591;28;20131;-48
2022/01/25 18:14:15;;;;;;;35.90;23.20;;;3.30;90.50;;;;;;5089489;28;20051;-49
2022/01/25 18:16:42;;;;;;;31.20;22.73;;;3.30;90.60;;;;;;5087648;28;20049;-50
2022/01/25 18:19:09;;;;;;;32.22;22.17;;;3.30;90.40;;;;;;5089217;28;20036;-47
2022/01/25 18:21:38;;;;;;;32.05;22.33;;;3.30;90.40;;;;;;5089522;28;20036;-48
2022/01/25 18:24:33;;;;;;;33.30;23.02;;;3.30;90.30;;;;;;5088465;28;20063;-46
2022/01/25 18:26:54;;;;;;;31.40;22.02;;;3.30;90.60;;;;;;5089123;28;20050;-52
2022/01/25 18:29:21;;;;;;;34.75;24.00;;;3.30;90.50;;;;;;5076614;28;20071;-48
2022/01/25 18:31:48;;;;;;;35.22;24.02;;;3.30;90.30;;;;;;5075489;28;20047;-48
2022/01/25 18:34:15;;;;;;;35.13;25.13;;;3.30;90.40;;;;;;5081437;28;20076;-55
2022/01/25 18:36:42;;;;;;;39.63;25.30;;;3.30;90.20;;;;;;5075114;28;20037;-51
2022/01/25 18:39:09;;;;;;;39.45;25.52;;;3.30;90.30;;;;;;5075439;28;20114;-47
2022/01/25 18:41:36;;;;;;;42.17;28.08;;;3.30;90.10;;;;;;5075283;28;20064;-48
2022/01/25 18:44:03;;;;;;;37.20;25.88;;;3.30;90.20;;;;;;5075141;28;20040;-49
2022/01/25 18:46:30;;;;;;;38.33;26.13;;;3.30;90.10;;;;;;5075172;28;20040;-50
2022/01/25 18:49:00;;;;;;;37.50;23.95;;;3.30;90.20;;;;;;5075244;28;20074;-48
2022/01/25 18:51:27;;;;;;;37.38;25.30;;;3.30;90.10;;;;;;5073229;28;20136;-49
2022/01/25 18:53:54;;;;;;;37.92;26.70;;;3.20;90.10;;;;;;5075035;28;20123;-51
2022/01/25 18:56:21;;;;;;;37.22;25.27;;;3.20;90.10;;;;;;5075021;28;20402;-52
2022/01/25 18:58:48;;;;;;;41.17;26.13;;;3.10;90.40;;;;;;5078204;28;20037;-49
2022/01/25 19:01:15;;;;;;;38.20;27.02;;;3.10;90.10;;;;;;5075246;28;20090;-48
2022/01/25 19:03:42;;;;;;;40.65;27.90;;;3.10;90.40;;;;;;5075763;28;20494;-51
2022/01/25 19:06:09;;;;;;;42.15;29.00;;;3.10;90.50;;;;;;5075138;28;20064;-48
2022/01/25 19:08:36;;;;;;;41.30;27.23;;;3.10;90.40;;;;;;5074948;28;20037;-50
2022/01/25 19:11:02;;;;;;;45.85;29.38;;;3.10;90.30;;;;;;5073512;28;20037;-48
2022/01/25 19:13:32;;;;;;;53.70;32.92;;;3.10;90.30;;;;;;5074769;28;20472;-48
2022/01/25 19:15:59;;;;;;;51.80;32.53;;;3.10;90.40;;;;;;5074372;28;20143;-50
2022/01/25 19:18:26;;;;;;;48.15;32.30;;;3.10;90.40;;;;;;5073701;28;20138;-54
2022/01/25 19:20:53;;;;;;;52.22;33.10;;;3.10;90.30;;;;;;5080549;28;20055;-51
2022/01/25 19:23:20;;;;;;;52.80;33.78;;;3.10;90.20;;;;;;5074650;28;20094;-48
2022/01/25 19:25:47;;;;;;;53.40;34.70;;;3.10;90.40;;;;;;5074723;28;20090;-49
2022/01/25 19:28:13;;;;;;;59.47;36.45;;;3.10;90.40;;;;;;5073329;28;20048;-49
2022/01/25 19:30:41;;;;;;;53.17;34.83;;;3.00;90.40;;;;;;5074502;28;20407;-51
2022/01/25 19:33:07;;;;;;;56.80;33.92;;;2.90;90.50;;;;;;5074435;28;20037;-49
2022/01/25 19:35:35;;;;;;;55.15;32.42;;;2.90;90.80;;;;;;5074440;28;20041;-49
2022/01/25 19:38:02;;;;;;;50.08;32.03;;;2.90;90.80;;;;;;5075769;28;20052;-47
2022/01/25 19:40:31;;;;;;;54.55;33.55;;;2.90;90.60;;;;;;5076686;28;20040;-52
2022/01/25 19:42:58;;;;;;;50.13;31.48;;;2.90;90.40;;;;;;5075775;28;20055;-49
2022/01/25 19:45:25;;;;;;;48.28;31.00;;;2.90;90.30;;;;;;5075503;28;20083;-50
2022/01/25 19:47:52;;;;;;;48.92;31.38;;;2.90;90.50;;;;;;5075023;28;20541;-52
2022/01/25 19:50:23;;;;;;;49.50;30.85;;;2.90;90.50;;;;;;5076932;28;20100;-50
2022/01/25 19:52:57;;;;;;;51.65;31.02;;;2.90;90.50;;;;;;5073698;28;20040;-53
2022/01/25 19:55:27;;;;;;;42.25;26.25;;;2.90;90.40;;;;;;5074746;28;20058;-52
2022/01/25 19:57:53;;;;;;;40.75;26.67;;;2.90;90.20;;;;;;5074444;28;20045;-52
2022/01/25 20:00:20;;;;;;;43.20;27.20;;;2.80;90.30;;;;;;5075027;28;20032;-55
2022/01/25 20:02:47;;;;;;;44.28;26.52;;;2.80;90.50;;;;;;5085856;28;20036;-54
2022/01/25 20:05:14;;;;;;;43.45;25.73;;;2.80;90.50;;;;;;5074252;28;20044;-52
2022/01/25 20:07:41;;;;;;;36.55;22.33;;;2.80;90.60;;;;;;5075620;28;20044;-51
2022/01/25 20:10:07;;;;;;;38.72;23.25;;;2.80;90.20;;;;;;5073824;28;20051;-49
2022/01/25 20:12:34;;;;;;;36.30;21.63;;;2.80;90.30;;;;;;5073389;28;20119;-52
2022/01/25 20:15:02;;;;;;;36.42;21.02;;;2.80;90.10;;;;;;5072103;28;20040;-48
2022/01/25 20:17:31;;;;;;;34.83;20.42;;;2.80;90.10;;;;;;5072317;28;20053;-46
2022/01/25 20:19:59;;;;;;;34.03;21.33;;;2.80;90.00;;;;;;5078366;28;20538;-47
2022/01/25 20:22:38;;;;;;;32.67;20.20;;;2.80;90.00;;;;;;5073201;28;20040;-49
2022/01/25 20:25:17;;;;;;;35.38;21.13;;;2.80;90.00;;;;;;5073291;28;20470;-50
2022/01/25 20:31:15;;;;;;;33.97;19.95;;;2.80;90.00;;;;;;5073081;28;20044;-49
2022/01/25 20:33:09;;;;;;;36.13;19.80;;;2.80;90.00;;;;;;5067022;28;20082;-52
2022/01/25 20:35:36;;;;;;;36.30;20.70;;;2.80;90.00;;;;;;5072979;28;20434;-49
2022/01/25 20:38:03;;;;;;;33.95;20.98;;;2.90;90.00;;;;;;5072620;28;20047;-51
2022/01/25 20:40:30;;;;;;;34.75;20.38;;;2.90;90.00;;;;;;5072766;28;20349;-51
2022/01/25 20:42:57;;;;;;;36.35;21.58;;;2.90;89.60;;;;;;5073002;28;20475;-49
2022/01/25 20:45:23;;;;;;;33.08;20.55;;;2.90;89.50;;;;;;5071520;28;20037;-54
2022/01/25 20:47:50;;;;;;;32.85;20.95;;;2.90;89.30;;;;;;5074016;28;20050;-48
2022/01/25 20:50:17;;;;;;;32.88;21.75;;;2.90;89.60;;;;;;5072598;28;20479;-49
2022/01/25 20:52:44;;;;;;;36.35;23.25;;;2.90;89.70;;;;;;5072659;28;20040;-49
2022/01/25 20:55:11;;;;;;;37.50;21.85;;;2.90;89.60;;;;;;5072727;28;20044;-48
2022/01/25 20:57:38;;;;;;;37.70;21.80;;;2.90;89.50;;;;;;5072476;28;20388;-50
2022/01/25 21:00:26;;;;;;;32.97;20.02;;;2.90;89.80;;;;;;5073606;28;20086;-50
2022/01/25 21:03:05;;;;;;;35.80;21.73;;;2.90;89.50;;;;;;5073695;28;20036;-50
2022/01/25 21:08:18;;;;;;;37.42;20.05;;;2.90;90.00;;;;;;5072115;28;20452;-51
2022/01/25 21:10:45;;;;;;;34.67;20.88;;;2.90;90.00;;;;;;5072332;28;20045;-50
2022/01/25 21:13:12;;;;;;;30.92;20.50;;;2.90;90.00;;;;;;5072226;28;20037;-51
2022/01/25 21:15:41;;;;;;;32.72;21.02;;;2.90;90.00;;;;;;5072661;28;20553;-51
2022/01/25 21:18:08;;;;;;;33.30;20.88;;;2.90;90.10;;;;;;5076521;28;20127;-49
2022/01/25 21:20:35;;;;;;;34.45;20.77;;;2.90;90.10;;;;;;5068491;28;20090;-49
2022/01/25 21:23:02;;;;;;;34.95;20.92;;;2.90;90.00;;;;;;5072737;28;20045;-49
2022/01/25 21:25:29;;;;;;;32.38;20.98;;;2.90;90.20;;;;;;5071121;28;20032;-48
2022/01/25 21:27:55;;;;;;;34.58;20.88;;;2.90;90.10;;;;;;5072158;28;20036;-49
2022/01/25 21:30:24;;;;;;;32.47;20.05;;;2.90;90.20;;;;;;5072401;28;20044;-53
2022/01/25 21:32:51;;;;;;;32.03;20.55;;;2.90;90.20;;;;;;5077745;28;20110;-47
2022/01/25 21:35:18;;;;;;;35.33;22.02;;;2.90;90.30;;;;;;5072445;28;20045;-51
2022/01/25 21:37:45;;;;;;;32.55;20.30;;;3.00;90.40;;;;;;5072106;28;20067;-49
2022/01/25 21:40:32;;;;;;;36.17;21.85;;;2.90;90.20;;;;;;5072505;28;20033;-46
2022/01/25 21:42:59;;;;;;;34.17;21.88;;;2.90;90.30;;;;;;5072216;28;20040;-54
2022/01/25 21:45:26;;;;;;;32.22;20.33;;;2.90;90.40;;;;;;5071661;28;20047;-52
2022/01/25 21:47:55;;;;;;;34.78;21.90;;;3.00;90.60;;;;;;5072325;28;20439;-48
2022/01/25 21:50:22;;;;;;;35.40;21.30;;;3.00;90.30;;;;;;5072497;28;20036;-51
2022/01/25 21:52:49;;;;;;;34.47;20.85;;;3.10;90.30;;;;;;5072101;28;20037;-47
2022/01/25 21:55:16;;;;;;;36.92;22.38;;;3.10;90.20;;;;;;5054373;28;20139;-49
2022/01/25 21:57:43;;;;;;;36.45;21.88;;;3.10;90.10;;;;;;5069703;28;20041;-47
2022/01/25 22:00:10;;;;;;;34.70;22.27;;;3.10;90.20;;;;;;5074033;28;20090;-47
2022/01/25 22:02:43;;;;;;;36.65;22.73;;;3.10;90.30;;;;;;5076422;28;20067;-54
2022/01/25 22:05:10;;;;;;;35.92;22.08;;;3.20;90.20;;;;;;5075819;28;20055;-49
2022/01/25 22:07:45;;;;;;;37.22;23.17;;;3.20;90.30;;;;;;5075670;28;20041;-48
2022/01/25 22:10:14;;;;;;;36.20;22.05;;;3.20;90.10;;;;;;5075955;28;20123;-48
2022/01/25 22:12:46;;;;;;;37.00;23.48;;;3.20;90.20;;;;;;5075883;28;20036;-48
2022/01/25 22:15:13;;;;;;;33.83;22.38;;;3.20;90.20;;;;;;5075567;28;20087;-48
2022/01/25 22:17:41;;;;;;;36.08;22.23;;;3.30;90.20;;;;;;5075370;28;20064;-48
2022/01/25 22:20:08;;;;;;;35.97;22.02;;;3.20;90.30;;;;;;5075593;28;20095;-46
2022/01/25 22:22:35;;;;;;;36.13;22.58;;;3.30;90.10;;;;;;5078519;28;20044;-48
2022/01/25 22:25:02;;;;;;;35.10;22.23;;;3.30;90.20;;;;;;5075718;28;20330;-47
2022/01/25 22:27:32;;;;;;;35.80;22.30;;;3.30;90.20;;;;;;5075270;28;20082;-47
2022/01/25 22:29:59;;;;;;;34.83;22.55;;;3.30;90.10;;;;;;5078573;28;20444;-48
2022/01/25 22:32:26;;;;;;;35.55;22.13;;;3.30;90.10;;;;;;5076944;28;20036;-50
2022/01/25 22:34:53;;;;;;;35.03;21.90;;;3.30;90.30;;;;;;5074640;28;20178;-50
2022/01/25 22:37:20;;;;;;;33.25;22.73;;;3.30;90.30;;;;;;5075151;28;20068;-46
2022/01/25 22:39:46;;;;;;;34.10;22.52;;;3.30;90.30;;;;;;5074229;28;20113;-51
2022/01/25 22:42:15;;;;;;;36.80;22.42;;;3.30;90.30;;;;;;5075060;28;20446;-52
2022/01/25 22:44:42;;;;;;;37.90;22.77;;;3.30;90.20;;;;;;5076070;28;20044;-55
2022/01/25 22:47:13;;;;;;;39.85;23.90;;;3.30;90.30;;;;;;5075136;28;20044;-49
2022/01/25 22:49:48;;;;;;;38.90;24.25;;;3.30;90.20;;;;;;5075316;28;20044;-53
2022/01/25 22:52:15;;;;;;;38.22;23.85;;;3.30;90.40;;;;;;5075223;28;20048;-50
2022/01/25 22:54:42;;;;;;;42.00;24.52;;;3.30;90.20;;;;;;5075348;28;20040;-51
2022/01/25 22:57:09;;;;;;;36.63;24.05;;;3.30;90.30;;;;;;5073707;28;20040;-50
2022/01/25 22:59:36;;;;;;;40.45;23.30;;;3.30;90.40;;;;;;5075006;28;20087;-48
2022/01/25 23:02:20;;;;;;;42.70;25.10;;;3.30;90.30;;;;;;5074636;28;20041;-47
